createdAt,value
2022-08-14T00:01:01.259Z,0.67
2022-08-14T00:03:36.222Z,0.60
2022-08-14T00:06:13.985Z,0.50
2022-08-14T00:08:58.965Z,0.67
2022-08-14T00:11:33.486Z,0.90
2022-08-14T00:14:05.454Z,0.60
2022-08-14T00:16:45.012Z,0.50
2022-08-14T00:21:57.792Z,0.70
2022-08-14T00:24:31.057Z,0.90
2022-08-14T00:27:04.580Z,0.70
2022-08-14T00:29:49.565Z,0.80
2022-08-14T00:32:55.728Z,1.00
2022-08-14T00:35:18.304Z,0.70
2022-08-14T00:45:55.633Z,0.80
2022-08-14T00:48:34.305Z,0.80
2022-08-14T00:51:20.289Z,0.90
2022-08-14T01:12:43.105Z,0.73
2022-08-14T01:15:15.552Z,0.90
2022-08-14T01:18:04.592Z,1.07
2022-08-14T01:21:02.174Z,0.80
2022-08-14T01:23:46.695Z,0.80
2022-08-14T01:26:23.476Z,0.90
2022-08-14T01:29:11.007Z,1.00
2022-08-14T01:31:50.234Z,1.37
2022-08-14T01:35:20.920Z,0.97
2022-08-14T01:37:25.462Z,1.00
2022-08-14T01:40:03.054Z,1.20
2022-08-14T01:42:44.716Z,1.07
2022-08-14T01:48:03.920Z,1.23
2022-08-14T01:56:21.910Z,1.00
2022-08-14T02:01:57.958Z,1.00
2022-08-14T02:04:57.127Z,1.23
2022-08-14T02:07:53.749Z,1.00
2022-08-14T02:10:30.720Z,1.00
2022-08-14T02:13:10.265Z,1.40
2022-08-14T02:15:58.526Z,1.10
2022-08-14T02:18:32.603Z,1.30
2022-08-14T02:21:07.472Z,1.30
2022-08-14T02:23:39.735Z,1.33
2022-08-14T02:26:29.217Z,1.00
2022-08-14T02:29:06.425Z,1.30
2022-08-14T02:31:54.215Z,1.10
2022-08-14T02:34:33.941Z,1.27
2022-08-14T02:37:10.336Z,1.10
2022-08-14T02:39:45.826Z,1.00
2022-08-14T02:42:37.144Z,1.13
2022-08-14T02:45:38.425Z,1.00
2022-08-14T02:49:04.190Z,1.30
2022-08-14T02:54:03.711Z,1.20
2022-08-14T02:57:14.332Z,1.50
2022-08-14T02:59:35.149Z,1.20
2022-08-14T03:02:33.314Z,1.20
2022-08-14T03:05:01.168Z,1.57
2022-08-14T03:07:32.934Z,1.40
2022-08-14T03:10:25.692Z,1.33
2022-08-14T03:13:00.696Z,1.30
2022-08-14T03:15:45.557Z,1.30
2022-08-14T03:18:20.142Z,1.30
2022-08-14T03:21:06.323Z,1.20
2022-08-14T03:23:57.917Z,1.20
2022-08-14T03:26:30.809Z,1.47
2022-08-14T03:32:08.893Z,1.60
2022-08-14T03:34:48.570Z,1.67
2022-08-14T03:40:22.546Z,1.60
2022-08-14T03:42:57.404Z,1.90
2022-08-14T03:45:35.510Z,1.93
2022-08-14T03:48:11.109Z,1.67
2022-08-14T03:51:01.946Z,1.63
2022-08-14T03:53:41.019Z,1.90
2022-08-14T03:56:24.815Z,1.77
2022-08-14T04:01:45.655Z,1.87
2022-08-14T04:04:25.720Z,1.70
2022-08-14T04:07:00.994Z,2.10
2022-08-14T04:12:26.538Z,2.10
2022-08-14T04:14:58.658Z,1.80
2022-08-14T04:17:31.010Z,1.97
2022-08-14T04:20:09.931Z,2.17
2022-08-14T04:22:43.736Z,1.90
2022-08-14T04:25:15.685Z,1.90
2022-08-14T04:28:01.906Z,2.20
2022-08-14T04:30:42.255Z,1.80
2022-08-14T04:33:20.468Z,2.03
2022-08-14T04:35:55.890Z,1.67
2022-08-14T04:38:47.119Z,2.00
2022-08-14T04:41:37.468Z,2.00
2022-08-14T04:44:26.821Z,1.67
2022-08-14T04:47:24.711Z,1.30
2022-08-14T04:49:57.175Z,1.50
2022-08-14T04:52:38.899Z,1.50
2022-08-14T04:55:18.006Z,1.37
2022-08-14T04:57:50.048Z,1.50
2022-08-14T05:00:21.299Z,1.40
2022-08-14T05:03:02.265Z,1.20
2022-08-14T05:05:34.331Z,1.53
2022-08-14T05:08:50.535Z,1.40
2022-08-14T05:11:13.280Z,1.10
2022-08-14T05:14:16.865Z,1.40
2022-08-14T05:16:36.311Z,1.27
2022-08-14T05:19:17.632Z,1.10
2022-08-14T05:22:17.015Z,1.53
2022-08-14T05:24:53.015Z,1.23
2022-08-14T05:27:45.085Z,1.10
2022-08-14T05:30:20.728Z,1.30
2022-08-14T05:32:52.513Z,1.30
2022-08-14T05:35:23.948Z,1.10
2022-08-14T05:37:56.120Z,1.27
2022-08-14T05:40:28.997Z,1.10
2022-08-14T05:43:02.412Z,1.30
2022-08-14T05:45:38.316Z,1.00
2022-08-14T05:48:10.845Z,1.17
2022-08-14T05:50:55.850Z,1.43
2022-08-14T05:53:28.066Z,1.20
2022-08-14T05:56:05.822Z,1.40
2022-08-14T05:58:41.101Z,1.30
2022-08-14T06:01:14.114Z,1.33
2022-08-14T06:03:45.789Z,1.37
2022-08-14T06:06:21.212Z,1.63
2022-08-14T06:08:52.547Z,1.20
2022-08-14T06:11:31.011Z,1.20
2022-08-14T06:14:04.195Z,1.13
2022-08-14T06:16:47.630Z,1.50
2022-08-14T06:19:20.348Z,1.60
2022-08-14T06:21:58.310Z,1.27
2022-08-14T06:24:34.652Z,1.23
2022-08-14T06:27:10.080Z,1.30
2022-08-14T06:29:44.752Z,1.47
2022-08-14T06:32:37.387Z,1.40
2022-08-14T06:35:12.941Z,1.40
2022-08-14T06:37:49.922Z,1.33
2022-08-14T06:40:28.029Z,1.60
2022-08-14T06:43:03.453Z,1.53
2022-08-14T06:45:37.475Z,1.40
2022-08-14T06:48:17.548Z,1.50
2022-08-14T06:50:49.241Z,1.60
2022-08-14T06:53:20.822Z,1.20
2022-08-14T06:55:58.284Z,1.63
2022-08-14T06:58:33.228Z,1.47
2022-08-14T07:01:26.781Z,1.30
2022-08-14T07:04:24.139Z,1.30
2022-08-14T07:07:06.867Z,1.60
2022-08-14T07:09:43.731Z,1.43
2022-08-14T07:12:54.905Z,1.40
2022-08-14T07:15:15.089Z,1.50
2022-08-14T07:17:54.434Z,1.60
2022-08-14T07:20:31.271Z,1.53
2022-08-14T07:23:07.737Z,1.37
2022-08-14T07:25:43.812Z,1.30
2022-08-14T07:28:20.805Z,1.50
2022-08-14T07:30:53.466Z,1.50
2022-08-14T07:33:30.010Z,1.40
2022-08-14T07:36:03.681Z,1.53
2022-08-14T07:38:56.090Z,1.70
2022-08-14T07:41:33.727Z,1.90
2022-08-14T07:44:32.886Z,1.90
2022-08-14T07:46:57.732Z,1.50
2022-08-14T07:49:32.211Z,1.70
2022-08-14T07:52:03.518Z,1.70
2022-08-14T07:54:38.764Z,1.63
2022-08-14T07:57:12.674Z,1.50
2022-08-14T07:59:53.814Z,1.90
2022-08-14T08:02:25.499Z,2.03
2022-08-14T08:05:02.722Z,2.00
2022-08-14T08:07:35.364Z,1.80
2022-08-14T08:10:46.875Z,1.90
2022-08-14T08:13:23.924Z,1.73
2022-08-14T08:15:58.393Z,1.70
2022-08-14T08:18:31.014Z,2.00
2022-08-14T08:21:05.157Z,1.70
2022-08-14T08:23:40.846Z,1.80
2022-08-14T08:26:17.041Z,1.90
2022-08-14T08:29:03.435Z,1.90
2022-08-14T08:31:52.371Z,2.10
2022-08-14T08:34:24.321Z,2.27
2022-08-14T08:36:57.554Z,1.83
2022-08-14T08:39:31.045Z,1.90
2022-08-14T08:42:31.740Z,2.00
2022-08-14T08:45:14.066Z,2.03
2022-08-14T08:47:46.572Z,2.30
2022-08-14T08:50:31.704Z,2.27
2022-08-14T08:53:05.831Z,2.20
2022-08-14T08:55:39.466Z,2.70
2022-08-14T08:58:16.583Z,2.53
2022-08-14T09:00:54.462Z,2.67
2022-08-14T09:03:27.998Z,2.37
2022-08-14T09:06:02.277Z,2.43
2022-08-14T09:08:36.981Z,2.30
2022-08-14T09:11:21.237Z,2.60
2022-08-14T09:13:54.489Z,2.07
2022-08-14T09:16:27.455Z,2.03
2022-08-14T09:18:58.556Z,2.30
2022-08-14T09:21:31.862Z,2.20
2022-08-14T09:24:29.353Z,2.33
2022-08-14T09:26:56.793Z,2.33
2022-08-14T09:29:28.864Z,2.30
2022-08-14T09:32:04.008Z,2.20
2022-08-14T09:35:08.487Z,2.47
2022-08-14T09:37:51.161Z,2.53
2022-08-14T09:40:39.819Z,2.03
2022-08-14T09:43:34.602Z,2.40
2022-08-14T09:46:11.374Z,2.33
2022-08-14T09:48:50.162Z,2.13
2022-08-14T09:51:32.954Z,2.03
2022-08-14T09:54:23.126Z,2.47
2022-08-14T09:56:59.575Z,2.53
2022-08-14T09:59:33.801Z,2.10
2022-08-14T10:02:08.174Z,2.00
2022-08-14T10:04:46.332Z,2.60
2022-08-14T10:07:21.858Z,2.37
2022-08-14T10:10:00.202Z,2.17
2022-08-14T10:12:54.799Z,2.40
2022-08-14T10:15:31.436Z,2.47
2022-08-14T10:18:18.233Z,2.30
2022-08-14T10:20:58.995Z,2.20
2022-08-14T10:23:44.987Z,2.47
2022-08-14T10:26:23.158Z,2.30
2022-08-14T10:29:19.802Z,2.20
2022-08-14T10:32:02.882Z,2.30
2022-08-14T10:34:52.828Z,2.43
2022-08-14T10:37:28.009Z,2.50
2022-08-14T10:40:10.491Z,2.40
2022-08-14T10:42:44.120Z,1.93
2022-08-14T10:45:26.422Z,2.23
2022-08-14T10:50:51.437Z,2.10
2022-08-14T10:53:33.719Z,2.40
2022-08-14T10:56:08.792Z,2.13
2022-08-14T10:59:03.405Z,2.30
2022-08-14T11:01:41.285Z,2.30
2022-08-14T11:04:26.156Z,2.43
2022-08-14T11:06:59.507Z,2.13
2022-08-14T11:09:33.308Z,2.23
2022-08-14T11:12:34.095Z,2.07
2022-08-14T11:15:02.691Z,2.00
2022-08-14T11:17:38.202Z,2.40
2022-08-14T11:20:13.799Z,2.20
2022-08-14T11:22:52.674Z,2.23
2022-08-14T11:25:43.272Z,2.20
2022-08-14T11:28:19.239Z,2.30
2022-08-14T11:30:54.642Z,2.33
2022-08-14T11:33:32.432Z,2.20
2022-08-14T11:36:17.318Z,2.43
2022-08-14T11:38:52.639Z,2.10
2022-08-14T11:41:28.119Z,2.13
2022-08-14T11:44:01.701Z,1.90
2022-08-14T11:46:37.770Z,2.20
2022-08-14T11:49:15.968Z,2.13
2022-08-14T11:51:57.043Z,2.20
2022-08-14T11:54:34.972Z,1.90
2022-08-14T11:57:07.413Z,1.93
2022-08-14T11:59:44.438Z,2.60
2022-08-14T12:02:38.891Z,2.00
2022-08-14T12:05:16.484Z,2.20
2022-08-14T12:07:53.703Z,2.27
2022-08-14T12:10:26.924Z,2.30
2022-08-14T12:13:17.646Z,2.67
2022-08-14T12:15:51.817Z,2.43
2022-08-14T12:18:35.937Z,2.00
2022-08-14T12:21:21.135Z,2.30
2022-08-14T12:24:09.312Z,2.67
2022-08-14T12:27:01.360Z,2.23
2022-08-14T12:29:32.917Z,2.30
2022-08-14T12:32:12.745Z,2.33
2022-08-14T12:34:45.360Z,2.20
2022-08-14T12:37:18.267Z,1.93
2022-08-14T12:39:49.152Z,1.70
2022-08-14T12:42:27.376Z,2.20
2022-08-14T12:45:07.012Z,2.50
2022-08-14T12:47:38.958Z,2.30
2022-08-14T12:50:11.798Z,2.10
2022-08-14T12:53:01.986Z,2.03
2022-08-14T12:56:18.593Z,1.90
2022-08-14T12:58:49.910Z,1.73
2022-08-14T13:01:25.526Z,2.00
2022-08-14T13:04:10.209Z,2.50
2022-08-14T13:06:42.725Z,2.20
2022-08-14T13:09:21.181Z,2.10
2022-08-14T13:11:58.940Z,2.10
2022-08-14T13:14:54.702Z,2.03
2022-08-14T13:17:28.639Z,1.83
2022-08-14T13:20:24.229Z,2.00
2022-08-14T13:22:56.933Z,2.30
2022-08-14T13:25:34.646Z,2.03
2022-08-14T13:28:11.206Z,1.87
2022-08-14T13:30:46.468Z,1.97
2022-08-14T13:33:18.957Z,1.90
2022-08-14T13:35:54.513Z,1.97
2022-08-14T13:38:27.943Z,2.10
2022-08-14T13:41:03.976Z,1.83
2022-08-14T13:43:59.616Z,2.40
2022-08-14T13:46:32.930Z,2.03
2022-08-14T13:49:04.140Z,2.30
2022-08-14T13:51:41.912Z,2.30
2022-08-14T13:54:17.452Z,2.17
2022-08-14T13:56:51.773Z,2.50
2022-08-14T13:59:37.325Z,2.40
2022-08-14T14:02:11.595Z,2.50
2022-08-14T14:05:07.025Z,2.47
2022-08-14T14:07:39.378Z,2.40
2022-08-14T14:10:16.579Z,2.60
2022-08-14T14:12:56.062Z,2.33
2022-08-14T14:15:33.891Z,2.93
2022-08-14T14:18:34.327Z,2.43
2022-08-14T14:21:09.047Z,2.30
2022-08-14T14:23:41.472Z,2.37
2022-08-14T14:26:13.762Z,2.30
2022-08-14T14:28:56.949Z,2.20
2022-08-14T14:31:31.321Z,1.80
2022-08-14T14:34:12.483Z,2.13
2022-08-14T14:36:57.842Z,1.80
2022-08-14T14:39:31.390Z,2.20
2022-08-14T14:42:13.775Z,1.97
2022-08-14T14:44:56.530Z,1.97
2022-08-14T14:47:29.193Z,2.20
2022-08-14T14:50:04.831Z,2.30
2022-08-14T14:52:38.733Z,1.93
2022-08-14T14:55:13.578Z,2.10
2022-08-14T14:57:52.075Z,2.00
2022-08-14T15:00:30.992Z,1.90
2022-08-14T15:03:02.421Z,1.87
2022-08-14T15:05:35.504Z,2.00
2022-08-14T15:08:09.033Z,1.80
2022-08-14T15:10:48.341Z,1.50
2022-08-14T15:13:25.568Z,1.80
2022-08-14T15:16:01.623Z,1.57
2022-08-14T15:18:38.404Z,1.60
2022-08-14T15:21:11.800Z,1.60
2022-08-14T15:23:46.886Z,1.70
2022-08-14T15:26:23.873Z,1.70
2022-08-14T15:29:05.759Z,1.70
2022-08-14T15:31:40.080Z,1.60
2022-08-14T15:34:45.443Z,1.40
2022-08-14T15:37:10.980Z,1.50
2022-08-14T15:39:46.150Z,1.60
2022-08-14T15:42:17.610Z,1.60
2022-08-14T15:44:57.831Z,1.97
2022-08-14T15:47:41.556Z,1.90
2022-08-14T15:50:15.677Z,1.70
2022-08-14T15:52:53.112Z,1.80
2022-08-14T15:55:27.126Z,1.60
2022-08-14T15:58:03.246Z,1.77
2022-08-14T16:00:53.006Z,1.40
2022-08-14T16:03:35.322Z,1.80
2022-08-14T16:06:11.118Z,1.67
2022-08-14T16:11:37.315Z,1.73
2022-08-14T16:14:21.307Z,1.87
2022-08-14T16:17:00.524Z,1.40
2022-08-14T16:19:43.880Z,1.40
2022-08-14T16:22:57.459Z,1.80
2022-08-14T16:25:15.590Z,1.80
2022-08-14T16:27:49.975Z,1.67
2022-08-14T16:30:27.476Z,1.67
2022-08-14T16:33:02.104Z,1.80
2022-08-14T16:35:42.637Z,1.60
2022-08-14T16:40:25.543Z,1.50
2022-08-14T16:41:32.745Z,1.60
2022-08-14T16:44:13.607Z,1.60
2022-08-14T16:46:57.416Z,1.50
2022-08-14T16:49:35.351Z,1.50
2022-08-14T16:52:44.781Z,1.60
2022-08-14T16:55:53.345Z,1.63
2022-08-14T16:58:35.766Z,1.60
2022-08-14T17:01:27.361Z,1.47
2022-08-14T17:04:02.347Z,1.80
2022-08-14T17:06:51.786Z,1.60
2022-08-14T17:09:43.237Z,1.60
2022-08-14T17:12:28.721Z,1.50
2022-08-14T17:15:09.856Z,1.40
2022-08-14T17:17:58.343Z,1.60
2022-08-14T17:20:44.398Z,1.70
2022-08-14T17:23:23.118Z,1.27
2022-08-14T17:26:03.270Z,1.57
2022-08-14T17:28:51.504Z,1.40
2022-08-14T17:37:01.617Z,1.43
2022-08-14T17:39:39.679Z,1.60
2022-08-14T17:42:15.675Z,1.30
2022-08-14T17:45:04.997Z,1.50
2022-08-14T17:47:51.410Z,1.43
2022-08-14T17:50:59.911Z,2.20
2022-08-14T17:53:35.049Z,1.70
2022-08-14T17:56:07.974Z,1.53
2022-08-14T17:58:56.670Z,1.60
2022-08-14T18:01:30.783Z,1.40
2022-08-14T18:04:05.565Z,1.77
2022-08-14T18:06:58.847Z,1.40
2022-08-14T18:09:57.406Z,1.70
2022-08-14T18:12:37.043Z,1.50
2022-08-14T18:15:19.840Z,1.60
2022-08-14T18:18:09.156Z,1.67
2022-08-14T18:21:41.927Z,1.60
2022-08-14T18:23:42.911Z,2.07
2022-08-14T18:26:37.149Z,1.57
2022-08-14T18:29:14.926Z,1.73
2022-08-14T18:32:02.505Z,1.80
2022-08-14T18:34:51.128Z,1.50
2022-08-14T18:37:29.962Z,1.50
2022-08-14T18:42:49.271Z,1.70
2022-08-14T18:45:29.491Z,1.60
2022-08-14T18:48:51.727Z,1.40
2022-08-14T18:51:45.833Z,1.50
2022-08-14T18:57:40.354Z,1.40
2022-08-14T19:00:59.058Z,1.60
2022-08-14T19:06:56.220Z,1.80
2022-08-14T19:15:56.337Z,2.00
2022-08-14T19:26:54.162Z,1.53
2022-08-14T19:29:56.275Z,1.57
2022-08-14T19:38:00.316Z,2.13
2022-08-14T19:40:43.965Z,1.47
2022-08-14T19:43:55.133Z,1.70
2022-08-14T19:46:37.623Z,2.07
2022-08-14T19:49:10.188Z,1.80
2022-08-14T19:51:48.826Z,1.83
2022-08-14T19:54:20.556Z,1.50
2022-08-14T19:56:51.700Z,1.83
2022-08-14T19:59:36.525Z,1.90
2022-08-14T20:02:08.620Z,1.90
2022-08-14T20:04:45.962Z,2.10
2022-08-14T20:07:58.925Z,1.60
2022-08-14T20:11:07.901Z,1.83
2022-08-14T20:13:29.371Z,1.67
2022-08-14T20:16:21.240Z,1.90
2022-08-14T20:19:16.256Z,1.90
2022-08-14T20:22:04.298Z,1.80
2022-08-14T20:24:44.928Z,1.70
2022-08-14T20:27:40.564Z,1.70
2022-08-14T20:30:35.204Z,1.70
2022-08-14T20:33:11.870Z,1.60
2022-08-14T20:35:53.676Z,1.60
2022-08-14T20:38:30.739Z,1.60
2022-08-14T20:41:09.851Z,1.53
2022-08-14T20:44:06.419Z,1.33
2022-08-14T20:46:42.207Z,1.40
2022-08-14T20:49:19.111Z,1.37
2022-08-14T20:51:59.280Z,1.47
2022-08-14T20:54:36.430Z,1.70
2022-08-14T20:57:14.181Z,1.60
2022-08-14T20:59:47.119Z,1.50
2022-08-14T21:02:46.604Z,1.53
2022-08-14T21:05:33.880Z,1.60
2022-08-14T21:08:10.046Z,1.53
2022-08-14T21:10:58.437Z,1.40
2022-08-14T21:14:26.635Z,1.60
2022-08-14T21:16:36.766Z,1.50
2022-08-14T21:19:16.283Z,1.67
2022-08-14T21:21:55.026Z,1.40
2022-08-14T21:24:39.906Z,1.30
2022-08-14T21:27:20.158Z,1.47
2022-08-14T21:29:56.228Z,1.30
2022-08-14T21:32:50.201Z,1.30
2022-08-14T21:35:48.743Z,1.20
2022-08-14T21:38:39.241Z,1.20
2022-08-14T21:41:42.913Z,1.40
2022-08-14T21:44:42.929Z,1.50
2022-08-14T21:47:16.863Z,1.50
2022-08-14T21:49:50.891Z,1.17
2022-08-14T21:52:50.893Z,1.30
2022-08-14T21:55:23.514Z,1.20
2022-08-14T21:58:53.228Z,1.50
2022-08-14T22:00:53.633Z,1.20
2022-08-14T22:03:28.393Z,1.50
2022-08-14T22:09:10.440Z,1.30
2022-08-14T22:11:56.797Z,1.53
2022-08-14T22:14:32.528Z,1.43
2022-08-14T22:17:17.824Z,1.17
2022-08-14T22:19:55.182Z,1.40
2022-08-14T22:22:28.968Z,1.17
2022-08-14T22:25:04.361Z,1.40
2022-08-14T22:27:36.835Z,1.13
2022-08-14T22:30:36.959Z,1.50
2022-08-14T22:33:21.283Z,1.27
2022-08-14T22:36:02.373Z,1.43
2022-08-14T22:38:49.989Z,1.30
2022-08-14T22:41:31.612Z,1.20
2022-08-14T22:44:11.365Z,1.50
2022-08-14T22:50:31.315Z,1.40
2022-08-14T22:52:32.559Z,1.30
2022-08-14T22:55:06.252Z,1.20
2022-08-14T22:57:43.793Z,1.20
2022-08-14T23:00:25.686Z,1.27
2022-08-14T23:03:07.904Z,1.03
2022-08-14T23:05:52.708Z,1.23
2022-08-14T23:08:58.739Z,1.20
2022-08-14T23:11:27.898Z,1.30
2022-08-14T23:14:04.838Z,1.08
2022-08-14T23:16:36.904Z,1.27
2022-08-14T23:19:22.324Z,1.10
2022-08-14T23:24:53.032Z,1.02
2022-08-14T23:28:02.669Z,1.00
2022-08-14T23:33:22.981Z,1.10
2022-08-14T23:38:49.246Z,1.23
2022-08-14T23:41:46.214Z,1.25
2022-08-14T23:44:39.907Z,1.15
2022-08-14T23:47:51.976Z,1.50
2022-08-14T23:50:34.234Z,1.20
2022-08-14T23:53:47.285Z,1.20
2022-08-14T23:56:16.536Z,1.30
2022-08-14T23:58:50.631Z,1.20
